Time;durP1;ratioP1;P1;durP2;ratioP2;P2;SDS_P1;SDS_P2;PMS_P1;PMS_P2;Temp;Humidity;BMP_temperature;BMP_pressure;BME280_temperature;BME280_humidity;BME280_pressure;Samples;Min_cycle;Max_cycle;Signal;HPM_P1;HPM_P2
2022/06/04 00:01:44;;;;;;;;;;;;;;;29.92;43.24;99276.03;4468767;32;34310;-83
2022/06/04 00:04:12;;;;;;;;;;;;;;;30.29;42.56;99269.16;4482543;32;34406;-84
2022/06/04 00:06:39;;;;;;;;;;;;;;;30.19;42.63;99272.53;4482444;32;35034;-85
2022/06/04 00:09:07;;;;;;;;;;;;;;;30.20;42.55;99258.22;4482843;32;33495;-83
2022/06/04 00:17:09;;;;;;;;;;;;;;;30.06;43.11;99248.41;4482686;32;33175;-83
2022/06/04 00:19:37;;;;;;;;;;;;;;;29.91;43.29;99247.59;4482963;32;33404;-83
2022/06/04 00:22:04;;;;;;;;;;;;;;;29.76;43.68;99232.56;4483044;32;34235;-83
2022/06/04 00:24:32;;;;;;;;;;;;;;;30.15;42.86;99223.72;4467797;32;35163;-84
2022/06/04 00:26:59;;;;;;;;;;;;;;;29.75;43.71;99229.03;4482555;32;35032;-84
2022/06/04 00:29:26;;;;;;;;;;;;;;;29.69;43.87;99237.44;4482314;32;34479;-84
2022/06/04 00:31:54;;;;;;;;;;;;;;;29.67;43.99;99239.37;4482738;32;33510;-88
2022/06/04 00:34:21;;;;;;;;;;;;;;;29.78;43.84;99246.72;4481132;32;34984;-83
2022/06/04 00:36:48;;;;;;;;;;;;;;;29.68;44.04;99245.56;4474381;32;34340;-85
2022/06/04 00:39:18;;;;;;;;;;;;;;;29.86;43.66;99244.38;4479472;32;33998;-84
2022/06/04 00:41:58;;;;;;;;;;;;;;;29.89;43.54;99244.19;4482224;32;34870;-83
2022/06/04 00:44:30;;;;;;;;;;;;;;;29.89;43.43;99244.19;4481597;32;34416;-84
2022/06/04 00:47:06;;;;;;;;;;;;;;;29.71;43.91;99235.53;4482255;32;33870;-84
2022/06/04 00:49:34;;;;;;;;;;;;;;;29.74;43.91;99240.69;4482365;32;33488;-84
2022/06/04 00:52:04;;;;;;;;;;;;;;;29.77;43.83;99231.59;4482576;32;34605;-84
2022/06/04 00:54:31;;;;;;;;;;;;;;;29.85;43.80;99217.75;4482853;32;34032;-84
2022/06/04 00:57:15;;;;;;;;;;;;;;;29.70;44.10;99214.25;4484308;32;34225;-84
2022/06/04 00:59:42;;;;;;;;;;;;;;;29.39;44.80;99208.19;4454682;32;33597;-84
2022/06/04 01:02:12;;;;;;;;;;;;;;;29.63;44.34;99211.16;4481339;32;34403;-84
2022/06/04 01:04:50;;;;;;;;;;;;;;;29.72;44.17;99199.00;4483573;32;35205;-84
2022/06/04 01:07:36;;;;;;;;;;;;;;;29.59;44.49;99188.25;4470144;32;34221;-84
2022/06/04 01:10:04;;;;;;;;;;;;;;;29.80;44.00;99181.50;4470131;32;33229;-84
2022/06/04 01:12:44;;;;;;;;;;;;;;;29.63;44.40;99173.75;4484304;32;35010;-85
2022/06/04 01:15:14;;;;;;;;;;;;;;;28.74;46.48;99173.97;4483312;32;35484;-84
2022/06/04 01:17:53;;;;;;;;;;;;;;;28.64;46.85;99177.31;4469822;32;34920;-84
2022/06/04 01:20:27;;;;;;;;;;;;;;;28.86;46.07;99167.03;4483610;32;33274;-82
2022/06/04 01:22:58;;;;;;;;;;;;;;;29.22;45.28;99160.38;4469952;32;34142;-84
2022/06/04 01:25:25;;;;;;;;;;;;;;;28.97;46.36;99153.00;4484370;32;34389;-84
2022/06/04 01:27:54;;;;;;;;;;;;;;;28.74;47.12;99151.78;4483718;32;34524;-83
2022/06/04 01:30:21;;;;;;;;;;;;;;;28.79;47.04;99155.00;4469140;32;34771;-83
2022/06/04 01:32:55;;;;;;;;;;;;;;;29.15;45.86;99161.72;4471461;32;33876;-84
2022/06/04 01:35:25;;;;;;;;;;;;;;;29.06;46.07;99169.34;4457318;32;35162;-85
2022/06/04 01:37:56;;;;;;;;;;;;;;;29.37;45.33;99166.53;4480127;32;33989;-86
2022/06/04 01:43:12;;;;;;;;;;;;;;;29.46;45.15;99181.94;4461398;32;34926;-84
2022/06/04 01:45:40;;;;;;;;;;;;;;;29.32;45.26;99183.72;4468853;32;34329;-83
2022/06/04 01:48:07;;;;;;;;;;;;;;;29.28;45.22;99192.00;4469039;32;35325;-82
2022/06/04 01:50:55;;;;;;;;;;;;;;;29.21;45.33;99198.69;4469692;32;34443;-84
2022/06/04 01:53:24;;;;;;;;;;;;;;;29.08;45.52;99198.59;4461496;32;34600;-84
2022/06/04 01:55:54;;;;;;;;;;;;;;;29.15;45.31;99201.75;4459552;32;35259;-84
2022/06/04 01:58:22;;;;;;;;;;;;;;;29.15;45.30;99193.75;4478957;32;34159;-84
2022/06/04 02:00:52;;;;;;;;;;;;;;;29.43;44.61;99195.50;4468286;32;33419;-82
2022/06/04 02:03:30;;;;;;;;;;;;;;;29.37;44.69;99177.22;4468202;32;34890;-84
2022/06/04 02:06:08;;;;;;;;;;;;;;;29.38;44.78;99179.78;4454489;32;34394;-83
2022/06/04 02:08:45;;;;;;;;;;;;;;;29.55;44.53;99182.22;4461231;32;34673;-82
2022/06/04 02:11:13;;;;;;;;;;;;;;;29.53;44.59;99175.25;4457554;32;33454;-83
2022/06/04 02:13:41;;;;;;;;;;;;;;;29.53;44.54;99173.44;4459940;32;35111;-84
2022/06/04 02:16:28;;;;;;;;;;;;;;;29.32;44.84;99167.69;4452193;32;34119;-84
2022/06/04 02:18:56;;;;;;;;;;;;;;;29.61;44.31;99167.63;4467733;32;34268;-84
2022/06/04 02:21:24;;;;;;;;;;;;;;;29.62;44.16;99157.78;4458108;32;34417;-85
2022/06/04 02:23:51;;;;;;;;;;;;;;;29.41;44.62;99163.56;4460558;32;33691;-84
2022/06/04 02:26:19;;;;;;;;;;;;;;;29.50;44.52;99159.44;4450984;32;32862;-84
2022/06/04 02:28:47;;;;;;;;;;;;;;;29.28;44.51;99157.28;4462936;32;35706;-85
2022/06/04 02:31:27;;;;;;;;;;;;;;;29.13;44.73;99164.47;4453443;32;34854;-84
2022/06/04 02:34:01;;;;;;;;;;;;;;;28.96;44.81;99156.66;4463603;32;34116;-84
2022/06/04 02:36:34;;;;;;;;;;;;;;;29.03;44.88;99153.53;4456121;32;34059;-83
2022/06/04 02:39:05;;;;;;;;;;;;;;;29.24;44.69;99158.44;4464182;32;34565;-82
2022/06/04 02:41:35;;;;;;;;;;;;;;;29.14;44.90;99162.66;4459295;32;33313;-83
2022/06/04 02:44:28;;;;;;;;;;;;;;;29.24;44.77;99163.78;4453636;32;34911;-87
2022/06/04 02:47:01;;;;;;;;;;;;;;;28.91;45.41;99167.63;4463206;32;34309;-82
2022/06/04 02:49:31;;;;;;;;;;;;;;;29.11;45.02;99165.53;4454342;32;34227;-83
2022/06/04 02:51:59;;;;;;;;;;;;;;;29.14;45.00;99154.66;4467945;32;34482;-81
2022/06/04 02:54:29;;;;;;;;;;;;;;;29.18;44.84;99159.69;4450654;32;33943;-83
2022/06/04 02:56:57;;;;;;;;;;;;;;;29.23;44.92;99164.75;4453263;32;35375;-83
2022/06/04 02:59:24;;;;;;;;;;;;;;;29.32;44.73;99141.00;4452794;32;35213;-82
2022/06/04 03:01:52;;;;;;;;;;;;;;;28.58;46.33;99142.06;4453081;32;33696;-83
2022/06/04 03:04:20;;;;;;;;;;;;;;;28.53;46.30;99136.16;4453465;32;33603;-83
2022/06/04 03:06:48;;;;;;;;;;;;;;;28.33;46.83;99137.31;4466046;32;35215;-82
2022/06/04 03:09:17;;;;;;;;;;;;;;;28.49;46.48;99141.75;4477613;31;34271;-83
2022/06/04 03:11:45;;;;;;;;;;;;;;;28.15;47.70;99143.78;4458470;32;33408;-81
2022/06/04 03:14:13;;;;;;;;;;;;;;;28.10;48.10;99154.72;4479626;32;34255;-82
2022/06/04 03:16:42;;;;;;;;;;;;;;;28.34;47.63;99157.72;4458835;31;34507;-83
2022/06/04 03:19:10;;;;;;;;;;;;;;;28.74;46.68;99154.44;4467335;32;35001;-83
2022/06/04 03:21:39;;;;;;;;;;;;;;;28.82;46.49;99158.34;4460606;32;34002;-86
2022/06/04 03:24:07;;;;;;;;;;;;;;;28.55;47.19;99157.41;4482918;32;33871;-83
2022/06/04 03:26:35;;;;;;;;;;;;;;;28.32;47.59;99156.94;4476644;32;34969;-83
2022/06/04 03:29:02;;;;;;;;;;;;;;;28.72;46.48;99165.22;4454984;32;35012;-82
2022/06/04 03:31:31;;;;;;;;;;;;;;;28.33;47.64;99161.31;4459342;32;33386;-82
2022/06/04 03:33:59;;;;;;;;;;;;;;;27.56;50.04;99159.62;4469106;32;34329;-83
2022/06/04 03:36:27;;;;;;;;;;;;;;;26.17;54.32;99159.12;4469621;32;35147;-82
2022/06/04 03:38:54;;;;;;;;;;;;;;;25.69;56.02;99165.94;4485065;31;35296;-82
2022/06/04 03:41:22;;;;;;;;;;;;;;;26.06;54.94;99159.66;4476623;32;34300;-82
2022/06/04 03:43:52;;;;;;;;;;;;;;;26.48;54.08;99160.22;4482763;32;34994;-82
2022/06/04 03:46:20;;;;;;;;;;;;;;;27.19;52.16;99152.84;4480153;31;34466;-83
2022/06/04 03:48:47;;;;;;;;;;;;;;;26.88;52.50;99156.28;4471541;31;35044;-82
2022/06/04 03:51:14;;;;;;;;;;;;;;;27.35;50.42;99150.16;4476085;32;33372;-82
2022/06/04 03:53:42;;;;;;;;;;;;;;;27.14;50.84;99155.75;4469685;32;33603;-83
2022/06/04 03:56:09;;;;;;;;;;;;;;;27.47;50.35;99149.50;4479189;32;34866;-81
2022/06/04 03:58:36;;;;;;;;;;;;;;;28.01;49.07;99143.75;4453388;32;34573;-83
2022/06/04 04:01:12;;;;;;;;;;;;;;;28.04;48.67;99141.75;4472863;32;34443;-83
2022/06/04 04:03:40;;;;;;;;;;;;;;;27.36;50.73;99138.59;4483319;32;33859;-83
2022/06/04 04:06:10;;;;;;;;;;;;;;;27.23;51.06;99151.72;4471561;32;35527;-82
2022/06/04 04:08:37;;;;;;;;;;;;;;;26.99;51.39;99151.25;4467339;32;34539;-85
2022/06/04 04:11:08;;;;;;;;;;;;;;;26.85;52.15;99159.97;4476454;32;33765;-84
2022/06/04 04:13:38;;;;;;;;;;;;;;;24.94;57.59;99158.88;4482847;32;34468;-82
2022/06/04 04:16:06;;;;;;;;;;;;;;;24.82;57.95;99159.44;4468045;32;34376;-83
2022/06/04 04:18:34;;;;;;;;;;;;;;;24.80;57.81;99170.09;4462491;32;34165;-85
2022/06/04 04:21:05;;;;;;;;;;;;;;;25.75;55.13;99170.06;4467423;32;33026;-84
2022/06/04 04:23:33;;;;;;;;;;;;;;;26.36;53.40;99172.31;4479499;32;35149;-83
2022/06/04 04:26:00;;;;;;;;;;;;;;;24.99;57.65;99170.09;4494489;31;35122;-83
2022/06/04 04:28:27;;;;;;;;;;;;;;;24.96;58.10;99178.19;4484431;31;34261;-83
2022/06/04 04:30:55;;;;;;;;;;;;;;;25.76;55.98;99211.62;4478828;32;33330;-82
2022/06/04 04:33:22;;;;;;;;;;;;;;;24.49;59.99;99268.66;4464783;32;34863;-82
2022/06/04 04:35:50;;;;;;;;;;;;;;;25.47;57.05;99267.84;4482132;32;34071;-83
2022/06/04 04:38:18;;;;;;;;;;;;;;;25.83;55.89;99247.59;4482468;32;35359;-83
2022/06/04 04:40:46;;;;;;;;;;;;;;;26.73;53.43;99232.44;4479325;32;33308;-81
2022/06/04 04:43:13;;;;;;;;;;;;;;;26.13;55.11;99223.97;4472261;32;33804;-82
2022/06/04 04:45:44;;;;;;;;;;;;;;;26.39;53.61;99210.22;4476638;32;35300;-82
2022/06/04 04:48:15;;;;;;;;;;;;;;;26.46;52.31;99212.62;4482046;32;35390;-82
2022/06/04 04:50:45;;;;;;;;;;;;;;;26.15;53.88;99220.31;4476006;32;33702;-83
2022/06/04 04:53:13;;;;;;;;;;;;;;;26.76;51.90;99224.31;4468412;32;35476;-83
2022/06/04 04:55:44;;;;;;;;;;;;;;;27.17;50.99;99208.81;4469935;32;34366;-82
2022/06/04 04:58:12;;;;;;;;;;;;;;;26.43;52.74;99205.63;4467004;32;35392;-82
2022/06/04 05:00:39;;;;;;;;;;;;;;;26.10;53.60;99194.91;4469617;32;33696;-82
2022/06/04 05:03:06;;;;;;;;;;;;;;;26.19;53.38;99197.97;4491901;31;34228;-84
2022/06/04 05:05:34;;;;;;;;;;;;;;;26.38;53.16;99199.69;4453068;31;792318;-83
2022/06/04 05:08:02;;;;;;;;;;;;;;;26.01;54.12;99209.53;4475577;32;35785;-83
2022/06/04 05:10:30;;;;;;;;;;;;;;;26.06;53.71;99202.16;4468447;32;33680;-81
2022/06/04 05:12:57;;;;;;;;;;;;;;;25.54;54.91;99193.22;4450244;32;33809;-84
2022/06/04 05:15:24;;;;;;;;;;;;;;;25.50;55.66;99196.97;4461763;32;33952;-82
2022/06/04 05:17:52;;;;;;;;;;;;;;;25.43;55.34;99191.94;4444462;32;33996;-82
2022/06/04 05:20:19;;;;;;;;;;;;;;;26.03;53.73;99185.56;4463508;32;34104;-81
2022/06/04 05:22:47;;;;;;;;;;;;;;;25.78;54.40;99201.78;4455381;32;33975;-81
2022/06/04 05:25:15;;;;;;;;;;;;;;;25.76;55.00;99198.34;4466213;32;34016;-83
2022/06/04 05:27:42;;;;;;;;;;;;;;;25.83;54.81;99211.28;4451508;32;35708;-82
2022/06/04 05:30:10;;;;;;;;;;;;;;;25.92;54.19;99210.84;4461880;32;34605;-83
2022/06/04 05:32:37;;;;;;;;;;;;;;;25.22;55.88;99216.81;4464381;32;33615;-82
2022/06/04 05:35:05;;;;;;;;;;;;;;;23.92;59.23;99219.81;4465036;32;35297;-85
2022/06/04 05:37:32;;;;;;;;;;;;;;;24.25;58.94;99207.81;4466304;32;34480;-81
2022/06/04 05:40:05;;;;;;;;;;;;;;;24.16;59.77;99199.38;4465305;32;33800;-83
2022/06/04 05:42:33;;;;;;;;;;;;;;;25.43;56.14;99201.72;4468313;32;34488;-86
2022/06/04 05:45:00;;;;;;;;;;;;;;;24.72;58.05;99201.41;4468237;32;35166;-81
2022/06/04 05:47:28;;;;;;;;;;;;;;;25.72;54.74;99195.88;4468095;32;35172;-81
2022/06/04 05:49:55;;;;;;;;;;;;;;;26.24;53.75;99194.22;4467674;32;34537;-82
2022/06/04 05:52:23;;;;;;;;;;;;;;;26.74;52.42;99196.06;4462449;32;34017;-86
2022/06/04 05:54:50;;;;;;;;;;;;;;;26.66;52.57;99201.78;4464902;32;34117;-81
2022/06/04 05:57:18;;;;;;;;;;;;;;;26.38;53.23;99197.03;4463044;32;35157;-82
2022/06/04 05:59:45;;;;;;;;;;;;;;;26.56;52.43;99209.41;4466632;32;34186;-84
2022/06/04 06:02:12;;;;;;;;;;;;;;;26.28;52.86;99206.41;4464800;32;35012;-81
2022/06/04 06:04:58;;;;;;;;;;;;;;;26.01;53.71;99211.31;4464522;32;34127;-83
2022/06/04 06:07:26;;;;;;;;;;;;;;;25.89;53.91;99210.13;4467748;32;35406;-81
2022/06/04 06:09:53;;;;;;;;;;;;;;;25.70;54.45;99199.50;4476746;32;33392;-81
2022/06/04 06:12:20;;;;;;;;;;;;;;;25.05;56.56;99195.50;4479111;32;33966;-81
2022/06/04 06:14:48;;;;;;;;;;;;;;;25.45;55.69;99197.16;4483893;32;35390;-83
2022/06/04 06:17:15;;;;;;;;;;;;;;;26.15;53.30;99192.91;4483111;32;35200;-85
2022/06/04 06:19:42;;;;;;;;;;;;;;;26.28;52.73;99195.78;4483764;32;33542;-81
2022/06/04 06:25:33;;;;;;;;;;;;;;;25.27;55.39;99195.38;4476859;32;34604;-89
2022/06/04 06:28:01;;;;;;;;;;;;;;;24.07;59.19;99203.28;4483826;32;35179;-81
2022/06/04 06:30:28;;;;;;;;;;;;;;;24.89;56.95;99201.50;4484013;32;33507;-81
2022/06/04 06:32:58;;;;;;;;;;;;;;;25.59;54.88;99191.22;4483514;32;34346;-81
2022/06/04 06:35:25;;;;;;;;;;;;;;;26.04;53.25;99187.25;4480233;32;34246;-80
2022/06/04 06:37:53;;;;;;;;;;;;;;;25.69;54.03;99198.66;4483382;32;35291;-82
2022/06/04 06:40:21;;;;;;;;;;;;;;;25.53;54.44;99195.00;4480689;31;33408;-85
2022/06/04 06:42:49;;;;;;;;;;;;;;;26.46;52.32;99189.56;4482974;31;33852;-80
2022/06/04 06:45:16;;;;;;;;;;;;;;;26.08;53.10;99197.66;4483387;32;34807;-80
2022/06/04 06:47:44;;;;;;;;;;;;;;;25.66;54.31;99185.53;4482920;32;33718;-81
2022/06/04 06:50:12;;;;;;;;;;;;;;;26.01;53.61;99193.56;4483923;32;33571;-81
2022/06/04 06:52:40;;;;;;;;;;;;;;;25.91;53.91;99189.66;4482546;32;35010;-80
2022/06/04 06:55:07;;;;;;;;;;;;;;;26.19;53.39;99182.03;4483314;32;34219;-80
2022/06/04 06:57:35;;;;;;;;;;;;;;;26.94;50.99;99185.25;4483258;32;35102;-79
2022/06/04 07:00:04;;;;;;;;;;;;;;;25.71;54.16;99185.28;4482741;32;33322;-80
2022/06/04 07:02:31;;;;;;;;;;;;;;;25.80;54.61;99184.91;4482746;32;33785;-81
2022/06/04 07:04:59;;;;;;;;;;;;;;;25.99;53.96;99186.59;4483539;32;34116;-79
2022/06/04 07:07:26;;;;;;;;;;;;;;;26.47;52.47;99174.47;4483139;32;35138;-79
2022/06/04 07:09:54;;;;;;;;;;;;;;;25.67;55.11;99179.28;4483315;32;33708;-79
2022/06/04 07:12:22;;;;;;;;;;;;;;;25.83;54.56;99167.94;4483343;32;33916;-79
2022/06/04 07:14:49;;;;;;;;;;;;;;;26.19;54.22;99166.09;4482273;32;33801;-85
2022/06/04 07:17:17;;;;;;;;;;;;;;;26.17;54.27;99167.09;4482930;32;34341;-79
2022/06/04 07:19:45;;;;;;;;;;;;;;;26.57;53.43;99170.37;4482781;32;33471;-82
2022/06/04 07:22:12;;;;;;;;;;;;;;;25.68;56.18;99177.47;4477945;32;34957;-87
2022/06/04 07:24:39;;;;;;;;;;;;;;;24.98;58.11;99173.69;4482120;32;33728;-83
2022/06/04 07:27:08;;;;;;;;;;;;;;;26.24;54.82;99172.97;4483608;32;34593;-81
2022/06/04 07:29:36;;;;;;;;;;;;;;;26.35;54.31;99165.28;4469314;32;34318;-81
2022/06/04 07:32:04;;;;;;;;;;;;;;;26.17;55.34;99157.31;4478840;32;34217;-80
2022/06/04 07:34:31;;;;;;;;;;;;;;;26.05;56.35;99162.41;4467671;32;35312;-85
2022/06/04 07:36:59;;;;;;;;;;;;;;;26.74;54.52;99172.13;4467578;32;35718;-83
2022/06/04 07:39:26;;;;;;;;;;;;;;;25.93;56.64;99163.88;4480827;32;34186;-82
2022/06/04 07:41:54;;;;;;;;;;;;;;;26.31;55.83;99171.72;4483225;32;35134;-85
2022/06/04 07:44:22;;;;;;;;;;;;;;;25.91;56.79;99171.06;4482685;32;34447;-81
2022/06/04 07:46:50;;;;;;;;;;;;;;;26.75;54.62;99176.53;4483013;32;34623;-83
2022/06/04 07:49:19;;;;;;;;;;;;;;;27.19;53.74;99181.25;4483038;32;33195;-85
2022/06/04 07:51:47;;;;;;;;;;;;;;;27.32;52.60;99175.19;4482694;32;34942;-82
2022/06/04 07:54:14;;;;;;;;;;;;;;;27.04;53.42;99180.25;4483220;32;34271;-81
2022/06/04 07:56:42;;;;;;;;;;;;;;;27.10;53.37;99172.81;4483289;32;34560;-87
2022/06/04 07:59:10;;;;;;;;;;;;;;;26.84;54.43;99170.72;4480429;32;32824;-85
2022/06/04 08:01:38;;;;;;;;;;;;;;;27.93;52.48;99168.19;4486453;31;36752;-82
2022/06/04 08:04:08;;;;;;;;;;;;;;;27.46;53.50;99166.41;4492559;31;33659;-86
2022/06/04 08:06:40;;;;;;;;;;;;;;;28.13;50.72;99156.34;4482125;32;34534;-81
2022/06/04 08:09:08;;;;;;;;;;;;;;;26.89;55.09;99155.34;4471594;32;33558;-87
2022/06/04 08:11:35;;;;;;;;;;;;;;;27.94;52.61;99151.25;4466452;32;33998;-82
2022/06/04 08:14:07;;;;;;;;;;;;;;;27.75;53.08;99167.44;4466607;32;34275;-81
2022/06/04 08:16:35;;;;;;;;;;;;;;;27.67;52.16;99152.81;4467014;32;34544;-81
2022/06/04 08:19:03;;;;;;;;;;;;;;;27.63;52.74;99158.31;4466855;32;33398;-81
2022/06/04 08:21:31;;;;;;;;;;;;;;;28.49;51.39;99157.75;4452741;32;33951;-88
2022/06/04 08:23:59;;;;;;;;;;;;;;;26.95;55.21;99160.34;4466384;32;35292;-81
2022/06/04 08:26:26;;;;;;;;;;;;;;;27.84;51.68;99156.28;4466733;32;34501;-81
2022/06/04 08:28:54;;;;;;;;;;;;;;;27.95;50.44;99152.09;4464736;32;33529;-79
2022/06/04 08:31:22;;;;;;;;;;;;;;;28.49;50.10;99147.09;4467221;32;34239;-81
2022/06/04 08:33:49;;;;;;;;;;;;;;;28.76;49.25;99150.75;4465898;32;35330;-81
2022/06/04 08:36:16;;;;;;;;;;;;;;;29.15;49.00;99156.38;4466935;32;35420;-81
2022/06/04 08:38:44;;;;;;;;;;;;;;;29.21;49.46;99158.62;4467830;32;33441;-89
2022/06/04 08:41:38;;;;;;;;;;;;;;;29.16;48.37;99158.06;4465979;32;33153;-81
2022/06/04 08:44:24;;;;;;;;;;;;;;;29.40;47.38;99153.84;4464440;32;35204;-80
2022/06/04 08:46:52;;;;;;;;;;;;;;;29.60;47.36;99159.72;4466980;32;34924;-81
2022/06/04 08:49:42;;;;;;;;;;;;;;;29.31;48.21;99157.94;4467024;32;33448;-82
2022/06/04 08:52:20;;;;;;;;;;;;;;;29.35;47.83;99163.94;4458896;32;33754;-84
2022/06/04 08:57:38;;;;;;;;;;;;;;;29.45;47.45;99165.06;4454726;32;34118;-82
2022/06/04 09:00:08;;;;;;;;;;;;;;;28.67;49.91;99164.63;4466840;32;33464;-83
2022/06/04 09:02:47;;;;;;;;;;;;;;;28.80;50.18;99168.28;4452889;32;33876;-83
2022/06/04 09:05:17;;;;;;;;;;;;;;;29.46;47.91;99163.25;4466229;32;35324;-81
2022/06/04 09:07:44;;;;;;;;;;;;;;;29.06;49.27;99166.69;4452625;32;34243;-86
2022/06/04 09:10:29;;;;;;;;;;;;;;;29.50;48.50;99170.97;4462849;32;33761;-87
2022/06/04 09:13:12;;;;;;;;;;;;;;;29.60;48.05;99173.94;4468373;32;35083;-82
2022/06/04 09:15:45;;;;;;;;;;;;;;;29.68;47.89;99173.44;4464951;32;35203;-82
2022/06/04 09:18:16;;;;;;;;;;;;;;;28.92;49.15;99177.31;4458084;32;34382;-81
2022/06/04 09:20:45;;;;;;;;;;;;;;;28.74;49.71;99173.13;4467672;32;34090;-85
2022/06/04 09:23:35;;;;;;;;;;;;;;;29.27;48.51;99174.25;4470721;32;34180;-80
2022/06/04 09:26:12;;;;;;;;;;;;;;;29.76;47.24;99163.09;4484583;32;34292;-82
2022/06/04 09:28:58;;;;;;;;;;;;;;;28.55;50.53;99168.91;4483855;32;34505;-85
2022/06/04 09:31:28;;;;;;;;;;;;;;;28.09;51.13;99169.00;4470124;32;34315;-82
2022/06/04 09:34:01;;;;;;;;;;;;;;;28.91;48.28;99164.94;4483395;32;35150;-82
2022/06/04 09:36:33;;;;;;;;;;;;;;;28.95;48.96;99161.13;4483950;32;34321;-84
2022/06/04 09:39:03;;;;;;;;;;;;;;;28.36;51.67;99161.16;4467910;32;34312;-82
2022/06/04 09:41:31;;;;;;;;;;;;;;;28.76;49.20;99161.41;4469894;32;33492;-83
2022/06/04 09:44:01;;;;;;;;;;;;;;;29.07;50.08;99160.38;4470333;32;34872;-84
2022/06/04 09:46:29;;;;;;;;;;;;;;;29.06;48.87;99164.00;4481075;31;35024;-83
2022/06/04 09:48:56;;;;;;;;;;;;;;;27.26;53.13;99175.50;4481965;32;34056;-81
2022/06/04 09:51:25;;;;;;;;;;;;;;;27.36;52.50;99170.53;4471728;32;34332;-84
2022/06/04 09:54:02;;;;;;;;;;;;;;;28.49;50.70;99163.09;4459993;31;34395;-82
2022/06/04 09:56:29;;;;;;;;;;;;;;;28.83;48.28;99159.25;4481018;32;33634;-85
2022/06/04 09:59:06;;;;;;;;;;;;;;;28.42;50.05;99157.31;4484128;31;33073;-81
2022/06/04 10:01:33;;;;;;;;;;;;;;;29.08;48.12;99167.44;4483857;32;34040;-82
2022/06/04 10:04:04;;;;;;;;;;;;;;;27.62;50.42;99163.75;4483994;32;34994;-82
2022/06/04 10:06:37;;;;;;;;;;;;;;;28.50;50.14;99167.50;4483748;32;35287;-83
2022/06/04 10:11:59;;;;;;;;;;;;;;;28.24;49.09;99177.03;4472046;32;34131;-82
2022/06/04 10:14:31;;;;;;;;;;;;;;;28.68;48.95;99173.50;4482741;32;34246;-86
2022/06/04 10:16:59;;;;;;;;;;;;;;;28.25;48.55;99173.41;4473414;32;34545;-86
2022/06/04 10:19:27;;;;;;;;;;;;;;;28.68;47.99;99168.16;4468380;32;34309;-85
2022/06/04 10:22:04;;;;;;;;;;;;;;;28.07;48.42;99170.03;4482015;32;34334;-79
2022/06/04 10:24:47;;;;;;;;;;;;;;;28.31;48.57;99167.72;4483853;32;34550;-83
2022/06/04 10:27:34;;;;;;;;;;;;;;;27.37;49.05;99174.91;4483338;32;34260;-91
2022/06/04 10:30:01;;;;;;;;;;;;;;;29.00;46.01;99168.88;4483482;32;34238;-82
2022/06/04 10:32:50;;;;;;;;;;;;;;;28.64;48.29;99171.97;4483756;32;34091;-83
2022/06/04 10:35:30;;;;;;;;;;;;;;;28.32;48.21;99172.09;4469704;32;35165;-83
2022/06/04 10:38:16;;;;;;;;;;;;;;;28.51;48.63;99172.72;4468414;32;34792;-83
2022/06/04 10:40:47;;;;;;;;;;;;;;;28.41;48.07;99176.91;4468287;32;34375;-82
2022/06/04 10:43:34;;;;;;;;;;;;;;;28.72;47.72;99170.56;4476541;32;33628;-81
2022/06/04 10:46:02;;;;;;;;;;;;;;;28.45;48.70;99173.13;4483518;32;34299;-84
2022/06/04 10:48:55;;;;;;;;;;;;;;;28.85;48.69;99178.66;4483464;32;34444;-82
2022/06/04 10:51:32;;;;;;;;;;;;;;;28.14;50.07;99185.56;4480324;32;34338;-82
2022/06/04 10:54:02;;;;;;;;;;;;;;;28.43;48.72;99184.81;4469652;32;33760;-84
2022/06/04 10:56:43;;;;;;;;;;;;;;;29.40;47.12;99175.22;4483424;32;34386;-83
2022/06/04 10:59:10;;;;;;;;;;;;;;;29.22;48.21;99185.25;4481505;32;34412;-82
2022/06/04 11:01:39;;;;;;;;;;;;;;;28.66;47.75;99180.75;4482791;32;35374;-82
2022/06/04 11:04:16;;;;;;;;;;;;;;;27.86;49.33;99190.81;4483515;32;34114;-82
2022/06/04 11:06:49;;;;;;;;;;;;;;;28.93;48.97;99189.72;4483344;32;35169;-83
2022/06/04 11:09:18;;;;;;;;;;;;;;;28.96;49.31;99188.66;4469642;32;34249;-84
2022/06/04 11:11:51;;;;;;;;;;;;;;;28.34;48.37;99192.41;4483517;32;35150;-81
2022/06/04 11:14:24;;;;;;;;;;;;;;;29.27;46.38;99195.63;4469675;32;33640;-82
2022/06/04 11:16:53;;;;;;;;;;;;;;;28.98;46.48;99194.78;4482060;32;34076;-85
2022/06/04 11:19:22;;;;;;;;;;;;;;;28.54;48.86;99204.56;4483419;32;35128;-85
2022/06/04 11:21:50;;;;;;;;;;;;;;;28.43;49.51;99207.00;4483166;32;34554;-83
2022/06/04 11:24:19;;;;;;;;;;;;;;;28.47;46.55;99203.19;4483191;32;33438;-82
2022/06/04 11:26:50;;;;;;;;;;;;;;;28.27;47.93;99207.03;4483604;32;33929;-87
2022/06/04 11:29:17;;;;;;;;;;;;;;;29.13;45.76;99208.97;4483243;32;35329;-82
2022/06/04 11:32:03;;;;;;;;;;;;;;;28.88;46.07;99213.16;4468646;32;35081;-83
2022/06/04 11:34:50;;;;;;;;;;;;;;;29.16;44.14;99200.78;4483717;32;33779;-83
2022/06/04 11:37:36;;;;;;;;;;;;;;;29.19;45.35;99209.47;4469524;32;34986;-82
2022/06/04 11:40:13;;;;;;;;;;;;;;;29.36;45.05;99211.09;4483213;32;33797;-82
2022/06/04 11:42:41;;;;;;;;;;;;;;;29.48;44.56;99206.75;4483159;32;34689;-84
2022/06/04 11:45:11;;;;;;;;;;;;;;;29.47;44.19;99205.03;4483456;32;34371;-86
2022/06/04 11:47:54;;;;;;;;;;;;;;;28.20;48.25;99202.16;4483053;32;34945;-82
2022/06/04 11:50:29;;;;;;;;;;;;;;;28.28;47.78;99207.87;4483070;32;34547;-82
2022/06/04 11:53:15;;;;;;;;;;;;;;;29.47;44.47;99218.38;4469268;32;34396;-84
2022/06/04 11:55:49;;;;;;;;;;;;;;;29.68;44.47;99210.84;4483333;32;33709;-82
2022/06/04 11:58:35;;;;;;;;;;;;;;;28.75;45.59;99212.19;4469282;32;34636;-84
2022/06/04 12:01:04;;;;;;;;;;;;;;;28.74;46.05;99213.16;4482806;32;35220;-85
2022/06/04 12:03:37;;;;;;;;;;;;;;;28.73;45.55;99219.44;4483066;32;33701;-82
2022/06/04 12:06:23;;;;;;;;;;;;;;;29.55;45.13;99224.97;4469233;32;33450;-83
2022/06/04 12:09:10;;;;;;;;;;;;;;;29.99;42.72;99223.87;4482516;32;33980;-82
2022/06/04 12:11:43;;;;;;;;;;;;;;;29.40;44.96;99225.94;4483206;32;34773;-83
2022/06/04 12:14:23;;;;;;;;;;;;;;;29.21;44.95;99222.72;4469156;32;35411;-83
2022/06/04 12:17:00;;;;;;;;;;;;;;;29.36;46.30;99219.09;4481501;32;34183;-82
2022/06/04 12:25:18;;;;;;;;;;;;;;;29.71;42.40;99230.19;4482518;32;34595;-82
2022/06/04 12:28:02;;;;;;;;;;;;;;;29.71;43.18;99232.03;4482568;32;33435;-85
2022/06/04 12:30:38;;;;;;;;;;;;;;;28.11;46.93;99235.56;4468996;32;34392;-82
2022/06/04 12:33:08;;;;;;;;;;;;;;;29.29;43.81;99228.44;4482779;32;34998;-84
2022/06/04 12:35:35;;;;;;;;;;;;;;;29.41;44.80;99227.66;4468547;32;34198;-82
2022/06/04 12:38:03;;;;;;;;;;;;;;;29.58;43.49;99222.09;4468628;32;34527;-83
2022/06/04 12:40:31;;;;;;;;;;;;;;;29.35;45.34;99222.69;4468563;32;33923;-81
2022/06/04 12:43:08;;;;;;;;;;;;;;;30.42;43.17;99226.41;4482440;32;34613;-82
2022/06/04 12:45:37;;;;;;;;;;;;;;;29.95;42.51;99233.06;4482891;32;34313;-86
2022/06/04 12:48:23;;;;;;;;;;;;;;;29.61;43.01;99228.22;4482482;32;32763;-82
2022/06/04 12:50:52;;;;;;;;;;;;;;;29.79;41.97;99227.88;4481414;32;33676;-82
2022/06/04 12:53:20;;;;;;;;;;;;;;;29.39;43.71;99221.53;4482606;32;35296;-82
2022/06/04 12:55:52;;;;;;;;;;;;;;;29.16;44.26;99227.50;4468704;32;34171;-81
2022/06/04 12:58:26;;;;;;;;;;;;;;;29.71;43.01;99224.84;4468396;32;34697;-85
2022/06/04 13:00:55;;;;;;;;;;;;;;;30.30;42.78;99232.56;4481937;32;34203;-83
2022/06/04 13:03:26;;;;;;;;;;;;;;;30.11;42.56;99221.34;4482233;32;33804;-85
2022/06/04 13:05:57;;;;;;;;;;;;;;;30.89;41.31;99234.81;4468361;32;34223;-83
2022/06/04 13:08:32;;;;;;;;;;;;;;;28.68;45.24;99233.06;4467874;32;34236;-84
2022/06/04 13:11:18;;;;;;;;;;;;;;;28.92;43.59;99230.69;4468217;32;33900;-85
2022/06/04 13:14:04;;;;;;;;;;;;;;;29.24;43.25;99230.53;4482429;32;33843;-84
2022/06/04 13:16:32;;;;;;;;;;;;;;;29.14;45.06;99216.06;4482292;32;34269;-83
2022/06/04 13:19:05;;;;;;;;;;;;;;;30.19;40.58;99213.72;4481898;32;33751;-84
2022/06/04 13:21:33;;;;;;;;;;;;;;;29.52;44.34;99225.16;4482246;32;34206;-85
2022/06/04 13:24:03;;;;;;;;;;;;;;;29.27;44.68;99212.50;4482266;32;35248;-83
2022/06/04 13:26:42;;;;;;;;;;;;;;;29.51;44.39;99218.09;4468204;32;34532;-83
2022/06/04 13:29:38;;;;;;;;;;;;;;;29.42;43.54;99218.69;4467540;32;33438;-84
2022/06/04 13:32:14;;;;;;;;;;;;;;;29.49;44.05;99206.66;4465611;32;34013;-82